Time;durP1;ratioP1;P1;durP2;ratioP2;P2;SDS_P1;SDS_P2;PMS_P1;PMS_P2;Temp;Humidity;BMP_temperature;BMP_pressure;BME280_temperature;BME280_humidity;BME280_pressure;Samples;Min_cycle;Max_cycle;Signal;HPM_P1;HPM_P2
2022/09/30 00:01:34;;;;;;;20.80;15.33;;;;;;;;;;5057276;28;20033;-60
2022/09/30 00:04:00;;;;;;;18.03;13.97;;;;;;;;;;5057087;28;20040;-60
2022/09/30 00:06:28;;;;;;;20.37;15.47;;;;;;;;;;5055640;28;21177;-60
2022/09/30 00:08:54;;;;;;;20.50;15.37;;;;;;;;;;5055743;28;20120;-60
2022/09/30 00:11:24;;;;;;;23.33;16.13;;;;;;;;;;5057324;28;20068;-60
2022/09/30 00:13:52;;;;;;;22.80;16.73;;;;;;;;;;5057086;28;20048;-60
2022/09/30 00:16:19;;;;;;;23.87;17.07;;;;;;;;;;5058920;28;20097;-60
2022/09/30 00:18:46;;;;;;;25.13;16.77;;;;;;;;;;5058929;28;20044;-60
2022/09/30 00:21:14;;;;;;;23.93;16.00;;;;;;;;;;5058149;28;20509;-60
2022/09/30 00:23:41;;;;;;;28.30;19.13;;;;;;;;;;5059768;28;20092;-60
2022/09/30 00:26:09;;;;;;;28.70;20.67;;;;;;;;;;5062556;28;20490;-60
2022/09/30 00:28:35;;;;;;;28.63;19.73;;;;;;;;;;5063794;28;20130;-60
2022/09/30 00:31:03;;;;;;;26.33;19.57;;;;;;;;;;5057051;28;20040;-60
2022/09/30 00:33:29;;;;;;;30.20;20.33;;;;;;;;;;5059988;28;20040;-60
2022/09/30 00:35:55;;;;;;;32.63;21.57;;;;;;;;;;5058474;28;20040;-60
2022/09/30 00:38:21;;;;;;;30.67;22.77;;;;;;;;;;5060665;28;20048;-60
2022/09/30 00:40:48;;;;;;;28.53;21.87;;;;;;;;;;5050645;28;20116;-60
2022/09/30 00:43:19;;;;;;;25.93;20.33;;;;;;;;;;5050770;28;20132;-60
2022/09/30 00:45:50;;;;;;;28.50;20.00;;;;;;;;;;5051408;28;20881;-60
2022/09/30 00:48:23;;;;;;;31.23;22.67;;;;;;;;;;5050685;28;20118;-60
2022/09/30 00:50:54;;;;;;;32.90;23.57;;;;;;;;;;5050395;28;20048;-60
2022/09/30 00:53:30;;;;;;;47.93;30.40;;;;;;;;;;5050789;28;20053;-60
2022/09/30 00:56:01;;;;;;;58.13;32.47;;;;;;;;;;5050646;28;20043;-60
2022/09/30 00:58:38;;;;;;;56.77;31.50;;;;;;;;;;5050001;28;20132;-60
2022/09/30 01:01:05;;;;;;;153.77;46.20;;;;;;;;;;5064934;28;20401;-60
2022/09/30 01:03:36;;;;;;;322.70;60.67;;;;;;;;;;5070475;28;20048;-60
2022/09/30 01:06:02;;;;;;;58.90;31.43;;;;;;;;;;5070340;28;20049;-60
2022/09/30 01:08:30;;;;;;;207.57;48.77;;;;;;;;;;5064315;28;20171;-60
2022/09/30 01:10:56;;;;;;;168.10;32.27;;;;;;;;;;5050036;28;20057;-60
2022/09/30 01:13:26;;;;;;;479.33;70.13;;;;;;;;;;5063724;28;20049;-60
2022/09/30 01:16:19;;;;;;;160.73;43.67;;;;;;;;;;5070143;28;20055;-60
2022/09/30 01:18:57;;;;;;;61.13;30.77;;;;;;;;;;5045951;28;20059;-60
2022/09/30 01:21:40;;;;;;;53.03;28.03;;;;;;;;;;5069766;28;20074;-61
2022/09/30 01:24:20;;;;;;;35.75;23.90;;;;;;;;;;5069925;28;20044;-60
2022/09/30 01:26:49;;;;;;;53.40;29.27;;;;;;;;;;5069780;28;20045;-60
2022/09/30 01:29:39;;;;;;;45.07;24.63;;;;;;;;;;5069589;28;20063;-60
2022/09/30 01:32:23;;;;;;;43.53;25.23;;;;;;;;;;5069834;28;20044;-60
2022/09/30 01:35:04;;;;;;;47.83;26.77;;;;;;;;;;5069824;28;20865;-60
2022/09/30 01:37:37;;;;;;;40.30;24.23;;;;;;;;;;5068714;28;20064;-60
2022/09/30 01:40:35;;;;;;;38.00;24.20;;;;;;;;;;5069323;28;20040;-60
2022/09/30 01:43:08;;;;;;;67.40;17.67;;;;;;;;;;5046438;28;20468;-60
2022/09/30 01:45:57;;;;;;;28.15;17.80;;;;;;;;;;5069187;28;20052;-60
2022/09/30 01:48:32;;;;;;;33.00;19.27;;;;;;;;;;5048828;28;20055;-60
2022/09/30 01:51:01;;;;;;;29.73;18.13;;;;;;;;;;5049524;28;20478;-60
2022/09/30 01:53:34;;;;;;;39.07;21.43;;;;;;;;;;5049255;28;20491;-59
2022/09/30 01:56:00;;;;;;;;;;;;;;;;;;5056350;28;20036;-60
2022/09/30 01:58:47;;;;;;;28.53;19.00;;;;;;;;;;5069519;28;19927;-60
2022/09/30 02:01:17;;;;;;;36.70;21.37;;;;;;;;;;5047639;28;20049;-60
2022/09/30 02:03:51;;;;;;;30.93;20.37;;;;;;;;;;5069265;28;20461;-60
2022/09/30 02:06:20;;;;;;;36.10;22.70;;;;;;;;;;5066024;28;20053;-60
2022/09/30 02:09:04;;;;;;;36.90;24.33;;;;;;;;;;5049598;28;20473;-59
2022/09/30 02:11:34;;;;;;;48.93;26.87;;;;;;;;;;5048718;28;20095;-59
2022/09/30 02:14:20;;;;;;;51.03;26.53;;;;;;;;;;5048933;28;20052;-60
2022/09/30 02:16:52;;;;;;;39.00;24.60;;;;;;;;;;5049041;28;20041;-59
2022/09/30 02:19:23;;;;;;;52.63;29.93;;;;;;;;;;5049077;28;20361;-60
2022/09/30 02:22:00;;;;;;;212.43;54.50;;;;;;;;;;5049669;28;20198;-60
2022/09/30 02:24:27;;;;;;;94.07;39.47;;;;;;;;;;5049824;28;20049;-60
2022/09/30 02:26:55;;;;;;;60.57;30.43;;;;;;;;;;5049682;28;20053;-60
2022/09/30 02:29:24;;;;;;;38.27;23.40;;;;;;;;;;5049005;28;20458;-60
2022/09/30 02:31:52;;;;;;;61.07;28.30;;;;;;;;;;5049316;28;20053;-60
2022/09/30 02:34:25;;;;;;;125.13;39.23;;;;;;;;;;5049625;28;20041;-60
2022/09/30 02:37:02;;;;;;;105.38;36.60;;;;;;;;;;5049535;28;20527;-60
2022/09/30 02:39:33;;;;;;;66.17;29.67;;;;;;;;;;5056875;28;20051;-60
2022/09/30 02:42:07;;;;;;;308.60;59.70;;;;;;;;;;5068167;28;20466;-60
2022/09/30 02:44:34;;;;;;;144.53;43.73;;;;;;;;;;5068876;28;20060;-60
2022/09/30 02:47:09;;;;;;;236.77;56.03;;;;;;;;;;5068055;28;20419;-60
2022/09/30 02:49:37;;;;;;;88.73;27.90;;;;;;;;;;5068277;28;20055;-60
2022/09/30 02:52:06;;;;;;;124.47;39.67;;;;;;;;;;5068123;28;20141;-60
2022/09/30 02:54:37;;;;;;;152.07;42.17;;;;;;;;;;5068333;28;20474;-60
2022/09/30 02:57:19;;;;;;;128.90;41.20;;;;;;;;;;5067711;28;20036;-59
2022/09/30 02:59:46;;;;;;;54.13;28.43;;;;;;;;;;5068683;28;20117;-60
2022/09/30 03:02:13;;;;;;;56.60;28.70;;;;;;;;;;5067125;28;21334;-60
2022/09/30 03:04:40;;;;;;;42.27;26.43;;;;;;;;;;5067855;28;21051;-60
2022/09/30 03:07:06;;;;;;;48.37;28.33;;;;;;;;;;5068729;28;20052;-61
2022/09/30 03:09:34;;;;;;;33.37;22.50;;;;;;;;;;5068567;28;20045;-60
2022/09/30 03:12:26;;;;;;;39.53;25.20;;;;;;;;;;5051744;28;20064;-60
2022/09/30 03:14:52;;;;;;;41.03;26.70;;;;;;;;;;5039487;28;20080;-60
2022/09/30 03:17:18;;;;;;;40.67;25.77;;;;;;;;;;5048139;28;20462;-60
2022/09/30 03:19:47;;;;;;;60.40;31.53;;;;;;;;;;5047728;28;20451;-60
2022/09/30 03:22:13;;;;;;;42.37;26.27;;;;;;;;;;5048479;28;20499;-60
2022/09/30 03:24:58;;;;;;;50.73;28.40;;;;;;;;;;5047973;28;20052;-60
2022/09/30 03:27:41;;;;;;;44.87;26.37;;;;;;;;;;5053990;28;20144;-59
2022/09/30 03:30:11;;;;;;;54.65;27.73;;;;;;;;;;5048261;28;20514;-60
2022/09/30 03:32:46;;;;;;;43.37;23.67;;;;;;;;;;5050591;28;20041;-60
2022/09/30 03:35:12;;;;;;;29.43;17.80;;;;;;;;;;5068031;28;20056;-60
2022/09/30 03:37:44;;;;;;;26.40;16.17;;;;;;;;;;5067987;28;20131;-60
2022/09/30 03:40:24;;;;;;;23.47;14.73;;;;;;;;;;5068196;28;20067;-59
2022/09/30 03:42:54;;;;;;;41.73;16.20;;;;;;;;;;5067782;28;20045;-59
2022/09/30 03:45:28;;;;;;;75.97;22.40;;;;;;;;;;5067388;28;20387;-60
2022/09/30 03:47:54;;;;;;;;;;;;;;;;;;5068764;28;20412;-60
2022/09/30 03:50:21;;;;;;;125.70;30.83;;;;;;;;;;5067867;28;19920;-60
2022/09/30 03:52:47;;;;;;;140.10;38.40;;;;;;;;;;5068282;28;20048;-60
2022/09/30 03:55:14;;;;;;;41.27;21.27;;;;;;;;;;5071781;28;20067;-59
2022/09/30 03:57:41;;;;;;;104.27;30.97;;;;;;;;;;5068075;28;20114;-59
2022/09/30 04:00:08;;;;;;;321.47;65.67;;;;;;;;;;5051513;28;20041;-59
2022/09/30 04:02:36;;;;;;;179.43;47.67;;;;;;;;;;5052016;28;20049;-59
2022/09/30 04:05:02;;;;;;;154.20;40.83;;;;;;;;;;5051539;28;20072;-60
2022/09/30 04:07:28;;;;;;;106.00;37.93;;;;;;;;;;5051712;28;20067;-60
2022/09/30 04:09:55;;;;;;;82.60;31.37;;;;;;;;;;5051642;28;20045;-60
2022/09/30 04:12:21;;;;;;;77.33;31.53;;;;;;;;;;5051556;28;20053;-60
2022/09/30 04:14:47;;;;;;;697.63;106.77;;;;;;;;;;5050630;28;20056;-61
2022/09/30 04:17:14;;;;;;;242.53;58.13;;;;;;;;;;5051537;28;20060;-60
2022/09/30 04:19:40;;;;;;;362.27;73.33;;;;;;;;;;5051344;28;20095;-60
2022/09/30 04:22:07;;;;;;;174.20;51.30;;;;;;;;;;5050847;28;20476;-59
2022/09/30 04:24:33;;;;;;;396.97;68.50;;;;;;;;;;5050516;28;20041;-60
2022/09/30 04:27:00;;;;;;;615.13;110.80;;;;;;;;;;5053630;28;20041;-59
2022/09/30 04:29:26;;;;;;;252.60;65.30;;;;;;;;;;5050369;28;20041;-60
2022/09/30 04:31:52;;;;;;;252.90;54.47;;;;;;;;;;5059676;28;20347;-60
2022/09/30 04:34:18;;;;;;;593.90;100.93;;;;;;;;;;5070889;28;20054;-60
2022/09/30 04:36:45;;;;;;;502.93;89.67;;;;;;;;;;5071098;28;20049;-60
2022/09/30 04:39:11;;;;;;;276.80;62.57;;;;;;;;;;5071023;28;20052;-59
2022/09/30 04:41:37;;;;;;;443.93;93.03;;;;;;;;;;5071163;28;20076;-60
2022/09/30 04:44:06;;;;;;;288.40;68.87;;;;;;;;;;5070783;28;20464;-59
2022/09/30 04:46:35;;;;;;;181.03;51.57;;;;;;;;;;5058957;28;20059;-60
2022/09/30 04:49:01;;;;;;;140.93;44.47;;;;;;;;;;5069328;28;20075;-60
2022/09/30 04:51:28;;;;;;;158.10;48.33;;;;;;;;;;5069896;28;20052;-60
2022/09/30 04:53:55;;;;;;;130.07;46.83;;;;;;;;;;5070965;28;20110;-59
2022/09/30 04:56:22;;;;;;;70.20;34.87;;;;;;;;;;5070035;28;20560;-60
2022/09/30 04:58:48;;;;;;;65.67;33.03;;;;;;;;;;5069288;28;20052;-59
2022/09/30 05:01:15;;;;;;;78.37;36.17;;;;;;;;;;5061132;28;20048;-59
2022/09/30 05:03:42;;;;;;;74.57;36.63;;;;;;;;;;5048635;28;20037;-60
2022/09/30 05:06:09;;;;;;;107.93;42.90;;;;;;;;;;5048457;28;20407;-60
2022/09/30 05:08:35;;;;;;;70.53;35.47;;;;;;;;;;5048459;28;20052;-59
2022/09/30 05:11:02;;;;;;;75.23;36.77;;;;;;;;;;5063032;28;20406;-60
2022/09/30 05:13:35;;;;;;;56.10;31.57;;;;;;;;;;5068995;28;20461;-59
2022/09/30 05:16:01;;;;;;;55.78;34.10;;;;;;;;;;5062295;28;20057;-60
2022/09/30 05:18:28;;;;;;;76.37;36.73;;;;;;;;;;5049970;28;20098;-59
2022/09/30 05:20:56;;;;;;;42.63;27.23;;;;;;;;;;5050110;28;20087;-59
2022/09/30 05:23:23;;;;;;;86.33;39.37;;;;;;;;;;5050129;28;20507;-60
2022/09/30 05:25:49;;;;;;;55.27;31.63;;;;;;;;;;5050032;28;20095;-60
2022/09/30 05:28:15;;;;;;;65.00;34.27;;;;;;;;;;5065655;28;20041;-60
2022/09/30 05:30:42;;;;;;;57.57;33.20;;;;;;;;;;5058900;28;20036;-60
2022/09/30 05:33:08;;;;;;;48.63;30.57;;;;;;;;;;5070887;28;20047;-60
2022/09/30 05:35:34;;;;;;;57.30;32.67;;;;;;;;;;5068386;28;20040;-60
2022/09/30 05:38:02;;;;;;;37.10;23.67;;;;;;;;;;5070840;28;20522;-60
2022/09/30 05:40:28;;;;;;;50.43;30.00;;;;;;;;;;5070006;28;20052;-60
2022/09/30 05:42:56;;;;;;;60.07;33.73;;;;;;;;;;5075674;28;20055;-60
2022/09/30 05:45:22;;;;;;;51.83;31.63;;;;;;;;;;5089611;28;20040;-60
2022/09/30 05:47:52;;;;;;;53.77;31.53;;;;;;;;;;5089820;28;20044;-59
2022/09/30 05:50:19;;;;;;;47.37;28.37;;;;;;;;;;5081974;28;20037;-59
2022/09/30 05:52:45;;;;;;;65.33;33.57;;;;;;;;;;5069133;28;20477;-60
2022/09/30 05:55:11;;;;;;;57.43;31.53;;;;;;;;;;5069594;28;20051;-60
2022/09/30 05:57:38;;;;;;;55.60;30.70;;;;;;;;;;5068551;28;20131;-60
2022/09/30 06:00:05;;;;;;;46.83;29.47;;;;;;;;;;5053907;28;20053;-60
2022/09/30 06:02:32;;;;;;;48.40;30.37;;;;;;;;;;5058125;28;20044;-59
2022/09/30 06:04:58;;;;;;;56.50;33.00;;;;;;;;;;5069508;28;20050;-60
2022/09/30 06:07:24;;;;;;;42.57;27.07;;;;;;;;;;5062999;28;20431;-60
2022/09/30 06:09:50;;;;;;;51.60;32.07;;;;;;;;;;5054679;28;20477;-60
2022/09/30 06:12:16;;;;;;;58.57;33.63;;;;;;;;;;5058443;28;20190;-60
2022/09/30 06:14:42;;;;;;;54.23;31.03;;;;;;;;;;5059723;28;20055;-60
2022/09/30 06:17:08;;;;;;;81.43;39.80;;;;;;;;;;5058808;28;20471;-60
2022/09/30 06:19:34;;;;;;;66.33;36.00;;;;;;;;;;5053810;28;20049;-60
2022/09/30 06:22:00;;;;;;;67.37;34.30;;;;;;;;;;5055335;28;20039;-60
2022/09/30 06:24:26;;;;;;;41.20;27.93;;;;;;;;;;5055287;28;20395;-59
2022/09/30 06:26:53;;;;;;;65.90;31.23;;;;;;;;;;5057743;28;20040;-60
2022/09/30 06:29:19;;;;;;;57.97;31.83;;;;;;;;;;5052879;28;20561;-60
2022/09/30 06:31:45;;;;;;;30.93;22.43;;;;;;;;;;5054208;28;20484;-60
2022/09/30 06:34:11;;;;;;;38.13;25.07;;;;;;;;;;5054774;28;20506;-60
2022/09/30 06:36:37;;;;;;;35.67;22.47;;;;;;;;;;5061808;28;20051;-60
2022/09/30 06:39:03;;;;;;;38.33;24.50;;;;;;;;;;5056762;28;20044;-60
2022/09/30 06:41:30;;;;;;;34.77;23.40;;;;;;;;;;5062459;28;20455;-59
2022/09/30 06:43:56;;;;;;;37.43;23.03;;;;;;;;;;5060164;28;20047;-60
2022/09/30 06:46:23;;;;;;;27.60;19.93;;;;;;;;;;5056656;28;20048;-60
2022/09/30 06:48:53;;;;;;;26.90;18.93;;;;;;;;;;5061724;28;20128;-60
2022/09/30 06:51:19;;;;;;;39.37;23.97;;;;;;;;;;5057424;28;20567;-60
2022/09/30 06:53:49;;;;;;;23.30;17.13;;;;;;;;;;5061944;28;20036;-60
2022/09/30 06:56:17;;;;;;;20.83;17.30;;;;;;;;;;5053746;28;20052;-60
2022/09/30 06:58:44;;;;;;;34.10;21.63;;;;;;;;;;5052357;28;20044;-60
2022/09/30 07:01:13;;;;;;;21.47;15.77;;;;;;;;;;5051428;28;20057;-60
2022/09/30 07:03:39;;;;;;;21.23;15.73;;;;;;;;;;5056605;28;20060;-60
2022/09/30 07:06:06;;;;;;;19.70;14.70;;;;;;;;;;5049741;28;20049;-60
2022/09/30 07:08:32;;;;;;;20.80;15.20;;;;;;;;;;5051843;28;20041;-59
2022/09/30 07:10:59;;;;;;;21.37;15.23;;;;;;;;;;5048757;28;20573;-60
2022/09/30 07:13:25;;;;;;;24.67;16.53;;;;;;;;;;5048716;28;20095;-61
2022/09/30 07:15:55;;;;;;;21.70;13.77;;;;;;;;;;5058484;28;20119;-60
2022/09/30 07:18:21;;;;;;;23.30;14.83;;;;;;;;;;5050853;28;20127;-61
2022/09/30 07:20:48;;;;;;;20.10;14.50;;;;;;;;;;5048052;28;20445;-60
2022/09/30 07:23:14;;;;;;;20.10;13.67;;;;;;;;;;5057722;28;20609;-60
2022/09/30 07:25:48;;;;;;;19.67;13.30;;;;;;;;;;5056923;28;20113;-60
2022/09/30 07:28:14;;;;;;;18.02;12.80;;;;;;;;;;5054603;28;20048;-60
2022/09/30 07:30:42;;;;;;;16.27;11.90;;;;;;;;;;5057604;28;20049;-60
2022/09/30 07:33:08;;;;;;;16.50;12.30;;;;;;;;;;5058073;28;20083;-60
2022/09/30 07:35:34;;;;;;;19.50;12.90;;;;;;;;;;5056270;28;20120;-60
2022/09/30 07:38:00;;;;;;;14.07;11.50;;;;;;;;;;5065136;28;20048;-61
2022/09/30 07:40:30;;;;;;;16.63;12.13;;;;;;;;;;5064490;28;20071;-60
2022/09/30 07:42:56;;;;;;;18.30;13.20;;;;;;;;;;5060456;28;20359;-60
2022/09/30 07:45:23;;;;;;;12.83;11.00;;;;;;;;;;5052130;28;20044;-61
2022/09/30 07:47:49;;;;;;;13.17;11.10;;;;;;;;;;5051817;28;20045;-61
2022/09/30 07:50:16;;;;;;;13.90;11.60;;;;;;;;;;5051717;28;20407;-60
2022/09/30 07:52:42;;;;;;;18.23;13.67;;;;;;;;;;5051443;28;20061;-61
2022/09/30 07:55:08;;;;;;;16.27;13.07;;;;;;;;;;5051172;28;20392;-61
2022/09/30 07:57:34;;;;;;;18.43;11.90;;;;;;;;;;5050700;28;20049;-60
2022/09/30 08:00:00;;;;;;;13.67;10.43;;;;;;;;;;5051473;28;20048;-60
2022/09/30 08:02:26;;;;;;;18.37;13.43;;;;;;;;;;5051198;28;20414;-60
2022/09/30 08:04:52;;;;;;;18.77;14.53;;;;;;;;;;5051314;28;20075;-60
2022/09/30 08:07:18;;;;;;;16.37;12.67;;;;;;;;;;5051487;28;20107;-60
2022/09/30 08:09:44;;;;;;;14.03;12.20;;;;;;;;;;5050788;28;20040;-60
2022/09/30 08:12:10;;;;;;;19.53;13.77;;;;;;;;;;5050664;28;20224;-60
2022/09/30 08:14:36;;;;;;;18.43;14.47;;;;;;;;;;5050810;28;20059;-60
2022/09/30 08:17:02;;;;;;;16.67;14.30;;;;;;;;;;5051074;28;20045;-60
2022/09/30 08:19:29;;;;;;;21.37;14.17;;;;;;;;;;5050358;28;20160;-60
2022/09/30 08:21:56;;;;;;;16.70;12.43;;;;;;;;;;5050935;28;20052;-60
2022/09/30 08:24:22;;;;;;;14.60;11.63;;;;;;;;;;5050682;28;20055;-60
2022/09/30 08:26:48;;;;;;;15.53;12.27;;;;;;;;;;5050988;28;20056;-60
2022/09/30 08:29:15;;;;;;;14.33;11.30;;;;;;;;;;5050724;28;20045;-60
2022/09/30 08:31:41;;;;;;;13.47;11.57;;;;;;;;;;5050016;28;20106;-60
2022/09/30 08:34:07;;;;;;;14.50;11.60;;;;;;;;;;5050757;28;20041;-60
2022/09/30 08:36:33;;;;;;;11.77;9.70;;;;;;;;;;5050385;28;20572;-60
2022/09/30 08:38:59;;;;;;;10.90;9.57;;;;;;;;;;5049803;28;20045;-60
2022/09/30 08:41:25;;;;;;;12.57;11.27;;;;;;;;;;5049971;28;20373;-60
2022/09/30 08:43:51;;;;;;;12.03;9.83;;;;;;;;;;5050349;28;20133;-60
2022/09/30 08:46:31;;;;;;;13.17;9.80;;;;;;;;;;5050601;28;20482;-60
2022/09/30 08:49:02;;;;;;;11.93;10.73;;;;;;;;;;5050478;28;20045;-60
2022/09/30 08:51:30;;;;;;;12.63;9.20;;;;;;;;;;5049882;28;20539;-60
2022/09/30 08:53:59;;;;;;;12.20;8.67;;;;;;;;;;5050437;28;20041;-60
2022/09/30 08:56:32;;;;;;;8.33;7.17;;;;;;;;;;5050074;28;20537;-60
2022/09/30 08:59:06;;;;;;;8.52;6.60;;;;;;;;;;5050268;28;20045;-60
2022/09/30 09:01:33;;;;;;;9.27;5.37;;;;;;;;;;5050200;28;20055;-60
2022/09/30 09:04:00;;;;;;;5.97;5.17;;;;;;;;;;5049991;28;20102;-61
2022/09/30 09:06:26;;;;;;;10.70;5.20;;;;;;;;;;5050226;28;20114;-60
2022/09/30 09:08:58;;;;;;;6.30;4.67;;;;;;;;;;5050232;28;20041;-61
2022/09/30 09:11:33;;;;;;;6.93;5.23;;;;;;;;;;5049830;28;20080;-61
2022/09/30 09:14:02;;;;;;;8.17;4.40;;;;;;;;;;5050032;28;20051;-60
2022/09/30 09:16:39;;;;;;;6.20;5.03;;;;;;;;;;5049379;28;20045;-60
2022/09/30 09:19:32;;;;;;;8.97;4.83;;;;;;;;;;5050137;28;20064;-60
2022/09/30 09:22:00;;;;;;;6.57;4.90;;;;;;;;;;5033700;28;20499;-61
2022/09/30 09:24:33;;;;;;;8.20;4.70;;;;;;;;;;5049809;28;20070;-60
2022/09/30 09:27:00;;;;;;;7.65;5.13;;;;;;;;;;5049707;28;20048;-60
2022/09/30 09:29:39;;;;;;;7.07;5.90;;;;;;;;;;5049149;28;20045;-60
2022/09/30 09:32:12;;;;;;;11.23;6.70;;;;;;;;;;5049830;28;20139;-60
2022/09/30 09:34:38;;;;;;;6.25;5.18;;;;;;;;;;5049338;28;20118;-60
2022/09/30 09:37:08;;;;;;;8.53;5.80;;;;;;;;;;5049494;28;20056;-61
2022/09/30 09:39:40;;;;;;;9.87;6.33;;;;;;;;;;5048887;28;20447;-60
2022/09/30 09:42:15;;;;;;;6.50;5.80;;;;;;;;;;5049311;28;20473;-60
2022/09/30 09:44:57;;;;;;;8.43;5.17;;;;;;;;;;5049441;28;20129;-60
2022/09/30 09:47:23;;;;;;;9.70;6.40;;;;;;;;;;5048901;28;20036;-61
2022/09/30 09:50:02;;;;;;;11.03;6.27;;;;;;;;;;5049344;28;20049;-60
2022/09/30 09:52:38;;;;;;;6.57;5.50;;;;;;;;;;5048327;28;20053;-60
2022/09/30 09:55:04;;;;;;;9.13;6.50;;;;;;;;;;5049154;28;20083;-60
2022/09/30 09:57:31;;;;;;;7.80;5.83;;;;;;;;;;5048756;28;20141;-60
2022/09/30 09:59:58;;;;;;;7.80;5.80;;;;;;;;;;5048714;28;20060;-60
2022/09/30 10:02:27;;;;;;;7.20;4.97;;;;;;;;;;5048857;28;20040;-60
2022/09/30 10:05:00;;;;;;;6.70;4.77;;;;;;;;;;5048836;28;20521;-60
2022/09/30 10:07:30;;;;;;;7.85;4.07;;;;;;;;;;5048862;28;20053;-60
2022/09/30 10:10:05;;;;;;;5.80;5.07;;;;;;;;;;5048626;28;20045;-60
2022/09/30 10:12:31;;;;;;;6.07;4.80;;;;;;;;;;5048401;28;20126;-60
2022/09/30 10:14:59;;;;;;;6.33;4.53;;;;;;;;;;5049334;28;20144;-60
2022/09/30 10:17:29;;;;;;;6.30;4.77;;;;;;;;;;5048963;28;20048;-60
2022/09/30 10:20:00;;;;;;;8.23;4.33;;;;;;;;;;5048979;28;20151;-60
2022/09/30 10:22:27;;;;;;;5.47;4.03;;;;;;;;;;5048771;28;20068;-60
2022/09/30 10:25:09;;;;;;;4.90;3.90;;;;;;;;;;5048604;28;20045;-60
2022/09/30 10:27:35;;;;;;;5.33;3.60;;;;;;;;;;5048526;28;20479;-60
2022/09/30 10:30:01;;;;;;;4.57;3.47;;;;;;;;;;5048223;28;20132;-60
2022/09/30 10:32:27;;;;;;;5.40;3.10;;;;;;;;;;5048602;28;20139;-60
2022/09/30 10:35:02;;;;;;;4.13;2.87;;;;;;;;;;5048555;28;20128;-60
2022/09/30 10:37:28;;;;;;;4.40;3.00;;;;;;;;;;5048462;28;20044;-60
2022/09/30 10:40:00;;;;;;;5.13;3.00;;;;;;;;;;5047850;28;20052;-60
2022/09/30 10:42:27;;;;;;;5.23;2.87;;;;;;;;;;5048100;28;20428;-60
2022/09/30 10:44:53;;;;;;;4.30;3.10;;;;;;;;;;5048179;28;20495;-60
2022/09/30 10:47:21;;;;;;;4.63;3.00;;;;;;;;;;5047914;28;20131;-60
2022/09/30 10:49:53;;;;;;;4.73;2.60;;;;;;;;;;5048278;28;20049;-60
2022/09/30 10:52:21;;;;;;;3.53;2.87;;;;;;;;;;5047908;28;20095;-60
2022/09/30 10:54:50;;;;;;;5.13;2.93;;;;;;;;;;5047920;28;20045;-60
2022/09/30 10:57:20;;;;;;;7.20;2.80;;;;;;;;;;5047954;28;20045;-60
2022/09/30 10:59:47;;;;;;;5.80;2.87;;;;;;;;;;5047878;28;20411;-60
2022/09/30 11:02:21;;;;;;;4.43;3.07;;;;;;;;;;5047265;28;20120;-60
2022/09/30 11:05:01;;;;;;;6.40;4.27;;;;;;;;;;5047790;28;20053;-60
2022/09/30 11:07:29;;;;;;;5.83;3.37;;;;;;;;;;5047759;28;20049;-60
2022/09/30 11:10:02;;;;;;;6.73;3.70;;;;;;;;;;5047717;28;20423;-61
2022/09/30 11:12:38;;;;;;;6.23;4.07;;;;;;;;;;5047499;28;20053;-60
2022/09/30 11:15:12;;;;;;;7.43;4.33;;;;;;;;;;5047181;28;20078;-60
2022/09/30 11:17:44;;;;;;;5.67;3.60;;;;;;;;;;5048219;28;20411;-60
2022/09/30 11:20:10;;;;;;;7.50;3.60;;;;;;;;;;5047529;28;20045;-60
2022/09/30 11:22:43;;;;;;;5.70;4.43;;;;;;;;;;5047704;28;20045;-60
2022/09/30 11:25:09;;;;;;;;;;;;;;;;;;5048000;28;20503;-60
2022/09/30 11:27:41;;;;;;;8.50;4.03;;;;;;;;;;5047136;28;19927;-60
2022/09/30 11:30:08;;;;;;;5.25;4.43;;;;;;;;;;5049103;28;20053;-60
2022/09/30 11:32:49;;;;;;;8.53;4.83;;;;;;;;;;5055724;28;20045;-60
2022/09/30 11:35:27;;;;;;;6.23;4.60;;;;;;;;;;5049673;28;20041;-60
2022/09/30 11:38:05;;;;;;;6.93;4.80;;;;;;;;;;5056388;28;20041;-60
2022/09/30 11:40:35;;;;;;;9.07;5.47;;;;;;;;;;5068157;28;20049;-60
2022/09/30 11:43:13;;;;;;;7.47;5.07;;;;;;;;;;5067729;28;20076;-60
2022/09/30 11:45:58;;;;;;;6.77;5.13;;;;;;;;;;5068265;28;20139;-60
2022/09/30 11:48:24;;;;;;;6.70;5.47;;;;;;;;;;5067827;28;20174;-59
2022/09/30 11:51:05;;;;;;;6.17;5.23;;;;;;;;;;5067282;28;20045;-60
2022/09/30 11:53:39;;;;;;;7.40;5.70;;;;;;;;;;5063905;28;20136;-60
2022/09/30 11:56:11;;;;;;;6.50;4.90;;;;;;;;;;5047447;28;20055;-60
2022/09/30 11:58:41;;;;;;;7.27;6.00;;;;;;;;;;5048189;28;20380;-60
2022/09/30 12:01:20;;;;;;;11.80;6.60;;;;;;;;;;5064877;28;20163;-61
2022/09/30 12:03:53;;;;;;;7.23;6.33;;;;;;;;;;5069593;28;20040;-60
2022/09/30 12:06:26;;;;;;;8.70;6.13;;;;;;;;;;5084433;28;20052;-60
2022/09/30 12:08:58;;;;;;;7.25;5.30;;;;;;;;;;5088150;28;20048;-60
2022/09/30 12:11:43;;;;;;;9.07;5.80;;;;;;;;;;5086992;28;20067;-60
2022/09/30 12:14:15;;;;;;;8.23;6.53;;;;;;;;;;5088122;28;20516;-60
2022/09/30 12:16:42;;;;;;;7.80;6.03;;;;;;;;;;5062594;28;20136;-60
2022/09/30 12:19:20;;;;;;;9.10;6.57;;;;;;;;;;5050831;28;20055;-60
2022/09/30 12:21:52;;;;;;;9.17;6.17;;;;;;;;;;5050827;28;20041;-60
2022/09/30 12:24:23;;;;;;;9.05;7.25;;;;;;;;;;5051165;28;20044;-60
2022/09/30 12:26:50;;;;;;;8.87;6.67;;;;;;;;;;5062195;28;20102;-60
2022/09/30 12:32:15;;;;;;;7.50;6.80;;;;;;;;;;5050599;28;20136;-60
2022/09/30 12:35:00;;;;;;;8.13;6.43;;;;;;;;;;5050115;28;20483;-60
2022/09/30 12:37:45;;;;;;;8.33;7.47;;;;;;;;;;5050529;28;20059;-60
2022/09/30 12:40:25;;;;;;;7.70;6.53;;;;;;;;;;5050522;28;20468;-60
2022/09/30 12:42:57;;;;;;;6.20;5.60;;;;;;;;;;5050397;28;20391;-60
2022/09/30 12:45:23;;;;;;;8.68;5.35;;;;;;;;;;5050368;28;20146;-60
2022/09/30 12:47:52;;;;;;;5.73;5.13;;;;;;;;;;5050026;28;20103;-60
2022/09/30 12:50:21;;;;;;;6.03;5.27;;;;;;;;;;5050587;28;20056;-60
2022/09/30 12:52:48;;;;;;;5.97;5.37;;;;;;;;;;5050164;28;20562;-60
2022/09/30 12:55:31;;;;;;;6.70;5.00;;;;;;;;;;5050240;28;20056;-60
2022/09/30 12:58:01;;;;;;;6.27;5.37;;;;;;;;;;5049687;28;20052;-60
2022/09/30 13:00:29;;;;;;;5.13;4.50;;;;;;;;;;5050030;28;20052;-60
2022/09/30 13:03:03;;;;;;;6.10;4.80;;;;;;;;;;5050533;28;20538;-60
2022/09/30 13:05:32;;;;;;;6.17;4.77;;;;;;;;;;5049016;28;20051;-60
2022/09/30 13:08:04;;;;;;;6.83;5.80;;;;;;;;;;5048436;28;20124;-60
2022/09/30 13:10:33;;;;;;;8.93;6.00;;;;;;;;;;5049542;28;20056;-60
2022/09/30 13:13:18;;;;;;;6.93;5.20;;;;;;;;;;5049862;28;20099;-60
2022/09/30 13:15:45;;;;;;;7.43;4.73;;;;;;;;;;5049897;28;20133;-60
2022/09/30 13:18:20;;;;;;;6.73;5.63;;;;;;;;;;5049812;28;20053;-60
2022/09/30 13:20:49;;;;;;;6.30;5.47;;;;;;;;;;5049704;28;20072;-60
2022/09/30 13:23:34;;;;;;;7.17;5.47;;;;;;;;;;5049809;28;20049;-60
2022/09/30 13:26:01;;;;;;;6.20;5.10;;;;;;;;;;5049661;28;20049;-60
2022/09/30 13:28:30;;;;;;;8.13;5.13;;;;;;;;;;5049505;28;20048;-60
2022/09/30 13:31:17;;;;;;;7.40;5.20;;;;;;;;;;5049486;28;20123;-60
2022/09/30 13:33:49;;;;;;;6.23;4.87;;;;;;;;;;5037911;28;20052;-60
2022/09/30 13:36:25;;;;;;;7.07;5.43;;;;;;;;;;5049387;28;20045;-60
2022/09/30 13:39:11;;;;;;;5.67;5.07;;;;;;;;;;5049653;28;20521;-60
2022/09/30 13:41:38;;;;;;;5.87;4.43;;;;;;;;;;5038037;28;20064;-60
2022/09/30 13:44:09;;;;;;;4.97;4.07;;;;;;;;;;5048096;28;20044;-60
2022/09/30 13:46:48;;;;;;;5.37;4.57;;;;;;;;;;5048551;28;20419;-60
2022/09/30 13:49:18;;;;;;;6.63;5.43;;;;;;;;;;5049129;28;20060;-60
2022/09/30 13:51:45;;;;;;;6.07;4.53;;;;;;;;;;5049217;28;20048;-60
2022/09/30 13:54:17;;;;;;;6.87;5.17;;;;;;;;;;5048957;28;20044;-60
2022/09/30 13:56:44;;;;;;;6.32;5.25;;;;;;;;;;5048525;28;20049;-60
2022/09/30 13:59:23;;;;;;;7.03;4.73;;;;;;;;;;5048987;28;20063;-60
2022/09/30 14:01:55;;;;;;;6.43;3.97;;;;;;;;;;5048812;28;20102;-60
2022/09/30 14:04:25;;;;;;;5.20;3.90;;;;;;;;;;5048792;28;20041;-60
2022/09/30 14:07:06;;;;;;;4.33;3.93;;;;;;;;;;5049069;28;20585;-60
2022/09/30 14:09:36;;;;;;;7.37;3.77;;;;;;;;;;5048934;28;20049;-60
2022/09/30 14:12:13;;;;;;;6.33;3.70;;;;;;;;;;5048137;28;20068;-60
2022/09/30 14:14:46;;;;;;;5.27;4.13;;;;;;;;;;5048611;28;20402;-60
2022/09/30 14:17:31;;;;;;;5.17;3.70;;;;;;;;;;5048640;28;20106;-60
2022/09/30 14:20:00;;;;;;;5.20;3.53;;;;;;;;;;5048706;28;20099;-60
2022/09/30 14:22:28;;;;;;;4.77;4.10;;;;;;;;;;5048169;28;20483;-60
2022/09/30 14:24:55;;;;;;;5.90;4.30;;;;;;;;;;5048682;28;20396;-60
2022/09/30 14:27:30;;;;;;;5.47;4.67;;;;;;;;;;5048556;28;20534;-60
2022/09/30 14:29:59;;;;;;;5.97;4.43;;;;;;;;;;5048101;28;20128;-60
2022/09/30 14:32:34;;;;;;;6.23;4.03;;;;;;;;;;5048379;28;20049;-60
2022/09/30 14:35:04;;;;;;;4.97;4.03;;;;;;;;;;5048422;28;20052;-60
2022/09/30 14:37:32;;;;;;;5.77;3.50;;;;;;;;;;5047689;28;20076;-60
2022/09/30 14:39:59;;;;;;;6.17;3.13;;;;;;;;;;5048388;28;20107;-60
2022/09/30 14:42:28;;;;;;;5.03;3.47;;;;;;;;;;5047699;28;20458;-60
2022/09/30 14:44:55;;;;;;;4.67;3.23;;;;;;;;;;5048428;28;20068;-60
2022/09/30 14:47:21;;;;;;;5.23;3.80;;;;;;;;;;5048241;28;20498;-60